sensor_id;sensor_type;location;lat;lon;timestamp;pressure;altitude;pressure_sealevel;temperature;humidity
65151;BME280;51918;51.856;0.150;2023-04-08T00:01:35;101484.88;;;6.79;80.38
65151;BME280;51918;51.856;0.150;2023-04-08T00:06:36;101492.31;;;6.71;79.84
65151;BME280;51918;51.856;0.150;2023-04-08T00:11:36;101493.09;;;6.60;79.99
65151;BME280;51918;51.856;0.150;2023-04-08T00:16:38;101484.56;;;6.49;79.58
65151;BME280;51918;51.856;0.150;2023-04-08T00:21:39;101478.69;;;6.35;79.47
65151;BME280;51918;51.856;0.150;2023-04-08T00:26:39;101480.34;;;6.24;80.18
65151;BME280;51918;51.856;0.150;2023-04-08T00:31:42;101476.84;;;6.13;80.14
65151;BME280;51918;51.856;0.150;2023-04-08T00:36:43;101477.63;;;6.03;80.21
65151;BME280;51918;51.856;0.150;2023-04-08T00:41:44;101477.44;;;5.93;81.03
65151;BME280;51918;51.856;0.150;2023-04-08T00:46:46;101484.00;;;5.84;81.69
65151;BME280;51918;51.856;0.150;2023-04-08T00:51:46;101484.63;;;5.75;82.08
65151;BME280;51918;51.856;0.150;2023-04-08T00:56:47;101491.19;;;5.66;82.22
65151;BME280;51918;51.856;0.150;2023-04-08T01:01:54;101488.34;;;5.58;82.62
65151;BME280;51918;51.856;0.150;2023-04-08T01:07:02;101500.09;;;5.48;82.83
65151;BME280;51918;51.856;0.150;2023-04-08T01:12:08;101493.88;;;5.39;83.05
65151;BME280;51918;51.856;0.150;2023-04-08T01:17:10;101485.81;;;5.32;83.01
65151;BME280;51918;51.856;0.150;2023-04-08T01:22:11;101482.97;;;5.24;82.46
65151;BME280;51918;51.856;0.150;2023-04-08T01:27:18;101479.28;;;5.15;83.44
65151;BME280;51918;51.856;0.150;2023-04-08T01:32:19;101488.19;;;5.10;83.48
65151;BME280;51918;51.856;0.150;2023-04-08T01:37:21;101490.31;;;5.03;83.85
65151;BME280;51918;51.856;0.150;2023-04-08T01:42:24;101486.53;;;4.96;83.96
65151;BME280;51918;51.856;0.150;2023-04-08T01:47:27;101491.94;;;4.91;84.22
65151;BME280;51918;51.856;0.150;2023-04-08T01:52:29;101494.16;;;4.83;83.70
65151;BME280;51918;51.856;0.150;2023-04-08T01:57:34;101492.00;;;4.77;83.65
65151;BME280;51918;51.856;0.150;2023-04-08T02:02:37;101491.50;;;4.72;84.24
65151;BME280;51918;51.856;0.150;2023-04-08T02:07:37;101494.53;;;4.64;84.31
65151;BME280;51918;51.856;0.150;2023-04-08T02:12:39;101494.94;;;4.58;84.97
65151;BME280;51918;51.856;0.150;2023-04-08T02:17:43;101492.78;;;4.52;84.67
65151;BME280;51918;51.856;0.150;2023-04-08T02:22:47;101499.09;;;4.46;84.80
65151;BME280;51918;51.856;0.150;2023-04-08T02:27:51;101490.81;;;4.43;85.10
65151;BME280;51918;51.856;0.150;2023-04-08T02:32:53;101493.56;;;4.40;85.14
65151;BME280;51918;51.856;0.150;2023-04-08T02:37:53;101496.19;;;4.38;84.69
65151;BME280;51918;51.856;0.150;2023-04-08T02:42:56;101503.13;;;4.36;84.80
65151;BME280;51918;51.856;0.150;2023-04-08T02:47:58;101500.78;;;4.33;84.19
65151;BME280;51918;51.856;0.150;2023-04-08T02:52:59;101507.78;;;4.29;83.85
65151;BME280;51918;51.856;0.150;2023-04-08T02:58:01;101514.06;;;4.24;83.44
65151;BME280;51918;51.856;0.150;2023-04-08T03:03:01;101515.28;;;4.18;83.49
65151;BME280;51918;51.856;0.150;2023-04-08T03:08:02;101511.50;;;4.11;83.77
65151;BME280;51918;51.856;0.150;2023-04-08T03:13:04;101519.50;;;4.05;84.17
65151;BME280;51918;51.856;0.150;2023-04-08T03:18:04;101514.88;;;3.97;83.57
65151;BME280;51918;51.856;0.150;2023-04-08T03:23:05;101513.59;;;3.90;83.91
65151;BME280;51918;51.856;0.150;2023-04-08T03:28:07;101519.03;;;3.84;83.72
65151;BME280;51918;51.856;0.150;2023-04-08T03:33:07;101519.50;;;3.76;83.39
65151;BME280;51918;51.856;0.150;2023-04-08T03:38:08;101523.25;;;3.70;84.19
65151;BME280;51918;51.856;0.150;2023-04-08T03:43:10;101525.16;;;3.67;84.32
65151;BME280;51918;51.856;0.150;2023-04-08T03:48:10;101525.50;;;3.61;84.00
65151;BME280;51918;51.856;0.150;2023-04-08T03:53:11;101533.59;;;3.53;83.90
65151;BME280;51918;51.856;0.150;2023-04-08T03:58:13;101548.31;;;3.48;84.18
65151;BME280;51918;51.856;0.150;2023-04-08T04:03:13;101544.50;;;3.41;83.74
65151;BME280;51918;51.856;0.150;2023-04-08T04:08:14;101549.84;;;3.36;84.00
65151;BME280;51918;51.856;0.150;2023-04-08T04:13:16;101553.47;;;3.32;84.18
65151;BME280;51918;51.856;0.150;2023-04-08T04:18:16;101569.00;;;3.27;84.02
65151;BME280;51918;51.856;0.150;2023-04-08T04:23:17;101559.09;;;3.23;83.63
65151;BME280;51918;51.856;0.150;2023-04-08T04:28:19;101566.97;;;3.18;83.88
65151;BME280;51918;51.856;0.150;2023-04-08T04:33:22;101565.50;;;3.14;84.01
65151;BME280;51918;51.856;0.150;2023-04-08T04:38:23;101564.78;;;3.12;83.99
65151;BME280;51918;51.856;0.150;2023-04-08T04:43:25;101570.03;;;3.09;84.43
65151;BME280;51918;51.856;0.150;2023-04-08T04:48:25;101577.13;;;3.04;84.40
65151;BME280;51918;51.856;0.150;2023-04-08T04:53:26;101584.16;;;2.99;84.00
65151;BME280;51918;51.856;0.150;2023-04-08T04:58:28;101588.69;;;2.93;83.91
65151;BME280;51918;51.856;0.150;2023-04-08T05:03:29;101603.19;;;2.91;84.42
65151;BME280;51918;51.856;0.150;2023-04-08T05:08:29;101600.75;;;2.90;84.92
65151;BME280;51918;51.856;0.150;2023-04-08T05:13:32;101605.00;;;2.89;85.49
65151;BME280;51918;51.856;0.150;2023-04-08T05:18:33;101598.38;;;2.87;85.59
65151;BME280;51918;51.856;0.150;2023-04-08T05:23:33;101607.06;;;2.83;85.03
65151;BME280;51918;51.856;0.150;2023-04-08T05:28:35;101616.56;;;2.79;85.01
65151;BME280;51918;51.856;0.150;2023-04-08T05:33:36;101620.91;;;2.77;85.21
65151;BME280;51918;51.856;0.150;2023-04-08T05:38:37;101612.41;;;2.78;85.03
65151;BME280;51918;51.856;0.150;2023-04-08T05:43:39;101623.31;;;2.80;85.60
65151;BME280;51918;51.856;0.150;2023-04-08T05:48:40;101624.03;;;2.82;85.47
65151;BME280;51918;51.856;0.150;2023-04-08T05:53:40;101630.59;;;2.86;85.63
65151;BME280;51918;51.856;0.150;2023-04-08T05:58:43;101635.44;;;2.91;86.21
65151;BME280;51918;51.856;0.150;2023-04-08T06:03:43;101637.63;;;2.97;86.31
65151;BME280;51918;51.856;0.150;2023-04-08T06:08:44;101633.03;;;3.04;86.37
65151;BME280;51918;51.856;0.150;2023-04-08T06:13:46;101638.50;;;3.12;86.75
65151;BME280;51918;51.856;0.150;2023-04-08T06:18:46;101650.63;;;3.23;88.79
65151;BME280;51918;51.856;0.150;2023-04-08T06:23:47;101646.16;;;3.42;89.70
65151;BME280;51918;51.856;0.150;2023-04-08T06:28:49;101648.28;;;3.64;89.65
65151;BME280;51918;51.856;0.150;2023-04-08T06:33:50;101658.00;;;3.86;90.18
65151;BME280;51918;51.856;0.150;2023-04-08T06:38:50;101650.31;;;4.02;90.02
65151;BME280;51918;51.856;0.150;2023-04-08T06:43:52;101662.06;;;4.19;90.45
65151;BME280;51918;51.856;0.150;2023-04-08T06:48:53;101667.16;;;4.33;91.66
65151;BME280;51918;51.856;0.150;2023-04-08T06:53:54;101674.13;;;4.44;92.79
65151;BME280;51918;51.856;0.150;2023-04-08T06:58:56;101669.84;;;4.59;94.04
65151;BME280;51918;51.856;0.150;2023-04-08T07:03:57;101661.97;;;4.76;94.59
65151;BME280;51918;51.856;0.150;2023-04-08T07:08:57;101671.75;;;4.97;95.28
65151;BME280;51918;51.856;0.150;2023-04-08T07:13:59;101678.31;;;5.14;96.41
65151;BME280;51918;51.856;0.150;2023-04-08T07:19:00;101679.31;;;5.38;96.97
65151;BME280;51918;51.856;0.150;2023-04-08T07:24:01;101684.78;;;5.72;98.12
65151;BME280;51918;51.856;0.150;2023-04-08T07:29:03;101697.66;;;6.09;99.70
65151;BME280;51918;51.856;0.150;2023-04-08T07:34:03;101702.47;;;6.76;100.00
65151;BME280;51918;51.856;0.150;2023-04-08T07:39:04;101694.00;;;7.71;98.43
65151;BME280;51918;51.856;0.150;2023-04-08T07:44:06;101707.63;;;8.73;97.48
65151;BME280;51918;51.856;0.150;2023-04-08T07:49:06;101710.03;;;9.71;90.49
65151;BME280;51918;51.856;0.150;2023-04-08T07:54:07;101704.22;;;10.71;86.28
65151;BME280;51918;51.856;0.150;2023-04-08T07:59:09;101713.09;;;11.93;81.72
65151;BME280;51918;51.856;0.150;2023-04-08T08:04:10;101700.50;;;13.09;75.10
65151;BME280;51918;51.856;0.150;2023-04-08T08:09:10;101706.41;;;14.24;66.94
65151;BME280;51918;51.856;0.150;2023-04-08T08:14:13;101707.72;;;15.28;64.49
65151;BME280;51918;51.856;0.150;2023-04-08T08:19:14;101711.69;;;16.28;58.40
65151;BME280;51918;51.856;0.150;2023-04-08T08:24:15;101721.66;;;17.16;53.69
65151;BME280;51918;51.856;0.150;2023-04-08T08:29:17;101713.16;;;17.60;53.31
65151;BME280;51918;51.856;0.150;2023-04-08T08:34:17;101724.75;;;18.75;51.69
65151;BME280;51918;51.856;0.150;2023-04-08T08:39:18;101723.69;;;19.69;47.74
65151;BME280;51918;51.856;0.150;2023-04-08T08:44:21;101725.72;;;20.22;43.67
65151;BME280;51918;51.856;0.150;2023-04-08T08:49:21;101729.50;;;20.61;43.05
65151;BME280;51918;51.856;0.150;2023-04-08T08:54:22;101737.19;;;21.02;42.24
65151;BME280;51918;51.856;0.150;2023-04-08T08:59:24;101738.34;;;21.66;41.20
65151;BME280;51918;51.856;0.150;2023-04-08T09:04:24;101731.47;;;22.24;38.99
65151;BME280;51918;51.856;0.150;2023-04-08T09:09:25;101731.13;;;22.59;37.57
65151;BME280;51918;51.856;0.150;2023-04-08T09:14:27;101737.88;;;22.73;36.54
65151;BME280;51918;51.856;0.150;2023-04-08T09:19:29;101743.06;;;22.80;34.33
65151;BME280;51918;51.856;0.150;2023-04-08T09:24:30;101747.06;;;22.89;35.10
65151;BME280;51918;51.856;0.150;2023-04-08T09:29:32;101742.72;;;23.26;33.81
65151;BME280;51918;51.856;0.150;2023-04-08T09:34:32;101731.56;;;23.31;32.84
65151;BME280;51918;51.856;0.150;2023-04-08T09:39:33;101727.69;;;23.33;33.86
65151;BME280;51918;51.856;0.150;2023-04-08T09:44:36;101734.19;;;23.68;32.75
65151;BME280;51918;51.856;0.150;2023-04-08T09:49:39;101735.25;;;23.67;32.22
65151;BME280;51918;51.856;0.150;2023-04-08T09:54:49;101726.63;;;23.97;31.37
65151;BME280;51918;51.856;0.150;2023-04-08T10:00:04;101730.94;;;24.21;30.64
65151;BME280;51918;51.856;0.150;2023-04-08T10:05:09;101741.28;;;24.34;30.16
65151;BME280;51918;51.856;0.150;2023-04-08T10:10:12;101738.56;;;24.41;29.76
65151;BME280;51918;51.856;0.150;2023-04-08T10:15:25;101737.41;;;24.07;29.62
65151;BME280;51918;51.856;0.150;2023-04-08T10:20:44;101735.59;;;23.70;30.85
65151;BME280;51918;51.856;0.150;2023-04-08T10:25:46;101742.50;;;23.46;30.26
65151;BME280;51918;51.856;0.150;2023-04-08T10:30:49;101733.09;;;23.57;30.21
65151;BME280;51918;51.856;0.150;2023-04-08T10:35:52;101738.44;;;23.50;30.58
65151;BME280;51918;51.856;0.150;2023-04-08T10:40:53;101727.88;;;23.75;31.31
65151;BME280;51918;51.856;0.150;2023-04-08T10:45:55;101726.50;;;24.22;29.72
65151;BME280;51918;51.856;0.150;2023-04-08T10:50:57;101730.44;;;24.73;28.21
65151;BME280;51918;51.856;0.150;2023-04-08T10:56:05;101714.84;;;24.71;29.24
65151;BME280;51918;51.856;0.150;2023-04-08T11:01:07;101716.84;;;25.00;28.68
65151;BME280;51918;51.856;0.150;2023-04-08T11:06:08;101705.06;;;25.26;27.00
65151;BME280;51918;51.856;0.150;2023-04-08T11:11:09;101703.56;;;25.06;27.91
65151;BME280;51918;51.856;0.150;2023-04-08T11:16:11;101692.66;;;25.14;27.19
65151;BME280;51918;51.856;0.150;2023-04-08T11:21:12;101704.25;;;24.90;28.23
65151;BME280;51918;51.856;0.150;2023-04-08T11:26:12;101699.44;;;24.33;27.92
65151;BME280;51918;51.856;0.150;2023-04-08T11:31:16;101698.44;;;24.04;28.21
65151;BME280;51918;51.856;0.150;2023-04-08T11:36:17;101698.94;;;23.94;28.50
65151;BME280;51918;51.856;0.150;2023-04-08T11:41:17;101690.28;;;23.75;28.23
65151;BME280;51918;51.856;0.150;2023-04-08T11:46:19;101696.25;;;23.64;28.98
65151;BME280;51918;51.856;0.150;2023-04-08T11:51:20;101701.88;;;23.67;28.43
65151;BME280;51918;51.856;0.150;2023-04-08T11:56:22;101697.22;;;23.32;29.13
65151;BME280;51918;51.856;0.150;2023-04-08T12:01:25;101699.78;;;23.58;27.62
65151;BME280;51918;51.856;0.150;2023-04-08T12:06:26;101689.00;;;23.96;29.86
65151;BME280;51918;51.856;0.150;2023-04-08T12:11:27;101690.91;;;24.07;27.34
65151;BME280;51918;51.856;0.150;2023-04-08T12:16:29;101691.41;;;24.70;29.13
65151;BME280;51918;51.856;0.150;2023-04-08T12:21:30;101682.72;;;25.28;27.22
65151;BME280;51918;51.856;0.150;2023-04-08T12:26:30;101679.84;;;25.42;27.39
65151;BME280;51918;51.856;0.150;2023-04-08T12:31:32;101683.47;;;25.52;25.44
65151;BME280;51918;51.856;0.150;2023-04-08T12:36:33;101688.16;;;25.62;25.95
65151;BME280;51918;51.856;0.150;2023-04-08T12:41:33;101674.19;;;25.50;25.52
65151;BME280;51918;51.856;0.150;2023-04-08T12:46:35;101677.47;;;25.69;26.49
65151;BME280;51918;51.856;0.150;2023-04-08T12:51:36;101674.47;;;25.77;26.13
65151;BME280;51918;51.856;0.150;2023-04-08T12:56:37;101669.38;;;25.58;25.03
65151;BME280;51918;51.856;0.150;2023-04-08T13:01:39;101668.75;;;24.92;25.83
65151;BME280;51918;51.856;0.150;2023-04-08T13:06:39;101670.34;;;24.82;27.78
65151;BME280;51918;51.856;0.150;2023-04-08T13:11:40;101668.06;;;24.62;25.92
65151;BME280;51918;51.856;0.150;2023-04-08T13:16:42;101665.94;;;24.40;27.44
65151;BME280;51918;51.856;0.150;2023-04-08T13:21:43;101663.16;;;24.77;27.99
65151;BME280;51918;51.856;0.150;2023-04-08T13:26:43;101659.81;;;25.41;26.00
65151;BME280;51918;51.856;0.150;2023-04-08T13:31:45;101658.31;;;26.02;26.45
65151;BME280;51918;51.856;0.150;2023-04-08T13:36:46;101657.03;;;26.50;24.23
65151;BME280;51918;51.856;0.150;2023-04-08T13:41:46;101656.59;;;26.58;24.49
65151;BME280;51918;51.856;0.150;2023-04-08T13:46:48;101641.03;;;27.13;24.97
65151;BME280;51918;51.856;0.150;2023-04-08T13:51:49;101645.50;;;27.34;23.71
65151;BME280;51918;51.856;0.150;2023-04-08T13:56:49;101642.22;;;27.05;23.28
65151;BME280;51918;51.856;0.150;2023-04-08T14:01:52;101649.19;;;26.94;23.30
65151;BME280;51918;51.856;0.150;2023-04-08T14:06:52;101641.56;;;26.08;23.27
65151;BME280;51918;51.856;0.150;2023-04-08T14:11:53;101643.09;;;25.23;23.70
65151;BME280;51918;51.856;0.150;2023-04-08T14:16:55;101627.00;;;24.72;24.44
65151;BME280;51918;51.856;0.150;2023-04-08T14:21:55;101633.00;;;24.49;25.82
65151;BME280;51918;51.856;0.150;2023-04-08T14:26:56;101635.19;;;24.29;25.53
65151;BME280;51918;51.856;0.150;2023-04-08T14:31:58;101633.69;;;23.91;26.13
65151;BME280;51918;51.856;0.150;2023-04-08T14:36:58;101622.47;;;23.65;26.11
65151;BME280;51918;51.856;0.150;2023-04-08T14:41:59;101625.53;;;23.32;27.01
65151;BME280;51918;51.856;0.150;2023-04-08T14:47:01;101619.78;;;22.98;27.92
65151;BME280;51918;51.856;0.150;2023-04-08T14:52:02;101626.09;;;21.77;28.52
65151;BME280;51918;51.856;0.150;2023-04-08T14:57:02;101622.09;;;21.61;29.57
65151;BME280;51918;51.856;0.150;2023-04-08T15:02:04;101627.03;;;21.37;29.45
65151;BME280;51918;51.856;0.150;2023-04-08T15:07:05;101617.25;;;20.86;30.10
65151;BME280;51918;51.856;0.150;2023-04-08T15:12:06;101615.88;;;20.57;30.02
65151;BME280;51918;51.856;0.150;2023-04-08T15:17:07;101613.63;;;20.27;30.59
65151;BME280;51918;51.856;0.150;2023-04-08T15:22:08;101599.16;;;20.31;30.72
65151;BME280;51918;51.856;0.150;2023-04-08T15:27:09;101601.50;;;20.13;30.01
65151;BME280;51918;51.856;0.150;2023-04-08T15:32:11;101611.88;;;19.73;30.62
65151;BME280;51918;51.856;0.150;2023-04-08T15:37:11;101606.59;;;19.66;31.53
65151;BME280;51918;51.856;0.150;2023-04-08T15:42:12;101601.09;;;19.13;32.32
65151;BME280;51918;51.856;0.150;2023-04-08T15:47:14;101603.06;;;19.04;32.40
65151;BME280;51918;51.856;0.150;2023-04-08T15:52:14;101605.91;;;18.81;32.99
65151;BME280;51918;51.856;0.150;2023-04-08T15:57:15;101599.22;;;18.50;33.61
65151;BME280;51918;51.856;0.150;2023-04-08T16:02:16;101602.31;;;18.17;33.95
65151;BME280;51918;51.856;0.150;2023-04-08T16:07:17;101611.31;;;18.15;34.19
65151;BME280;51918;51.856;0.150;2023-04-08T16:12:18;101605.56;;;18.04;34.71
65151;BME280;51918;51.856;0.150;2023-04-08T16:17:20;101610.94;;;17.96;35.38
65151;BME280;51918;51.856;0.150;2023-04-08T16:22:20;101605.75;;;17.67;36.47
65151;BME280;51918;51.856;0.150;2023-04-08T16:27:39;101605.59;;;17.38;36.83
65151;BME280;51918;51.856;0.150;2023-04-08T16:32:41;101611.41;;;17.26;37.31
65151;BME280;51918;51.856;0.150;2023-04-08T16:37:59;101610.00;;;16.85;38.02
65151;BME280;51918;51.856;0.150;2023-04-08T16:43:11;101607.22;;;16.17;39.64
65151;BME280;51918;51.856;0.150;2023-04-08T16:48:22;101604.28;;;15.89;41.10
65151;BME280;51918;51.856;0.150;2023-04-08T16:53:28;101606.72;;;15.51;42.08
65151;BME280;51918;51.856;0.150;2023-04-08T16:58:29;101611.94;;;15.35;42.83
65151;BME280;51918;51.856;0.150;2023-04-08T17:03:49;101616.19;;;15.28;43.37
65151;BME280;51918;51.856;0.150;2023-04-08T17:08:50;101613.41;;;15.29;42.99
65151;BME280;51918;51.856;0.150;2023-04-08T17:13:50;101613.44;;;15.13;43.34
65151;BME280;51918;51.856;0.150;2023-04-08T17:18:52;101606.31;;;14.66;44.18
65151;BME280;51918;51.856;0.150;2023-04-08T17:24:17;101608.72;;;14.51;44.45
65151;BME280;51918;51.856;0.150;2023-04-08T17:29:17;101616.50;;;14.43;44.87
65151;BME280;51918;51.856;0.150;2023-04-08T17:34:19;101609.06;;;14.48;44.82
65151;BME280;51918;51.856;0.150;2023-04-08T17:39:32;101606.94;;;14.27;45.31
65151;BME280;51918;51.856;0.150;2023-04-08T17:44:56;101596.50;;;14.02;45.41
65151;BME280;51918;51.856;0.150;2023-04-08T17:50:20;101605.97;;;13.77;45.95
65151;BME280;51918;51.856;0.150;2023-04-08T17:55:21;101606.38;;;13.64;46.15
65151;BME280;51918;51.856;0.150;2023-04-08T18:00:21;101611.72;;;13.36;47.18
65151;BME280;51918;51.856;0.150;2023-04-08T18:05:23;101606.03;;;13.33;46.95
65151;BME280;51918;51.856;0.150;2023-04-08T18:16:02;101611.75;;;12.92;48.47
65151;BME280;51918;51.856;0.150;2023-04-08T18:21:19;101601.97;;;12.60;49.59
65151;BME280;51918;51.856;0.150;2023-04-08T18:32:01;101626.06;;;12.05;52.84
65151;BME280;51918;51.856;0.150;2023-04-08T18:37:15;101626.16;;;11.86;53.21
65151;BME280;51918;51.856;0.150;2023-04-08T18:47:37;101622.50;;;11.41;57.26
65151;BME280;51918;51.856;0.150;2023-04-08T18:53:15;101632.69;;;11.23;56.96
65151;BME280;51918;51.856;0.150;2023-04-08T18:58:16;101634.06;;;11.08;59.32
65151;BME280;51918;51.856;0.150;2023-04-08T19:03:34;101633.25;;;10.98;60.19
65151;BME280;51918;51.856;0.150;2023-04-08T19:13:52;101630.41;;;10.72;61.56
65151;BME280;51918;51.856;0.150;2023-04-08T19:18:52;101632.16;;;10.61;62.18
65151;BME280;51918;51.856;0.150;2023-04-08T19:23:55;101636.34;;;10.53;62.64
65151;BME280;51918;51.856;0.150;2023-04-08T19:29:15;101638.34;;;10.29;65.32
65151;BME280;51918;51.856;0.150;2023-04-08T19:34:15;101646.84;;;10.20;65.88
65151;BME280;51918;51.856;0.150;2023-04-08T19:50:29;101657.66;;;9.83;67.95
65151;BME280;51918;51.856;0.150;2023-04-08T19:55:31;101660.53;;;9.69;68.73
65151;BME280;51918;51.856;0.150;2023-04-08T20:00:31;101665.13;;;9.65;69.61
65151;BME280;51918;51.856;0.150;2023-04-08T20:05:32;101663.03;;;9.59;70.37
65151;BME280;51918;51.856;0.150;2023-04-08T20:10:34;101663.47;;;9.34;75.84
65151;BME280;51918;51.856;0.150;2023-04-08T20:15:43;101662.44;;;9.25;77.20
65151;BME280;51918;51.856;0.150;2023-04-08T20:21:03;101670.06;;;9.15;81.16
65151;BME280;51918;51.856;0.150;2023-04-08T20:26:24;101669.97;;;9.05;80.29
65151;BME280;51918;51.856;0.150;2023-04-08T20:31:24;101671.63;;;9.06;81.91
65151;BME280;51918;51.856;0.150;2023-04-08T20:36:56;101675.69;;;9.09;81.49
65151;BME280;51918;51.856;0.150;2023-04-08T20:47:35;101672.91;;;9.12;78.58
65151;BME280;51918;51.856;0.150;2023-04-08T20:52:36;101668.63;;;9.01;80.34
65151;BME280;51918;51.856;0.150;2023-04-08T20:57:36;101675.16;;;8.94;80.71
65151;BME280;51918;51.856;0.150;2023-04-08T21:03:16;101676.16;;;8.82;82.04
65151;BME280;51918;51.856;0.150;2023-04-08T21:08:17;101683.16;;;8.80;84.87
65151;BME280;51918;51.856;0.150;2023-04-08T21:13:18;101685.13;;;8.76;82.82
65151;BME280;51918;51.856;0.150;2023-04-08T21:18:40;101676.78;;;8.63;86.26
65151;BME280;51918;51.856;0.150;2023-04-08T21:23:56;101685.47;;;8.83;83.51
65151;BME280;51918;51.856;0.150;2023-04-08T21:28:57;101682.66;;;8.86;83.29
65151;BME280;51918;51.856;0.150;2023-04-08T21:33:59;101686.22;;;8.95;81.64
65151;BME280;51918;51.856;0.150;2023-04-08T21:39:20;101680.75;;;8.99;82.16
65151;BME280;51918;51.856;0.150;2023-04-08T21:44:33;101682.97;;;9.04;80.66
65151;BME280;51918;51.856;0.150;2023-04-08T21:49:35;101672.09;;;9.00;81.32
65151;BME280;51918;51.856;0.150;2023-04-08T21:54:57;101672.16;;;8.89;81.10
65151;BME280;51918;51.856;0.150;2023-04-08T21:59:58;101658.78;;;8.74;83.26
65151;BME280;51918;51.856;0.150;2023-04-08T22:05:00;101667.59;;;8.49;85.14
65151;BME280;51918;51.856;0.150;2023-04-08T22:10:01;101666.19;;;8.56;86.39
65151;BME280;51918;51.856;0.150;2023-04-08T22:15:02;101664.56;;;8.44;86.43
65151;BME280;51918;51.856;0.150;2023-04-08T22:20:19;101658.97;;;8.28;88.67
65151;BME280;51918;51.856;0.150;2023-04-08T22:25:49;101664.91;;;8.28;86.92
65151;BME280;51918;51.856;0.150;2023-04-08T22:31:10;101658.16;;;8.38;85.89
65151;BME280;51918;51.856;0.150;2023-04-08T22:36:13;101658.28;;;8.48;84.26
65151;BME280;51918;51.856;0.150;2023-04-08T22:41:25;101654.22;;;8.45;83.21
65151;BME280;51918;51.856;0.150;2023-04-08T22:46:31;101657.34;;;8.38;83.99
65151;BME280;51918;51.856;0.150;2023-04-08T22:56:52;101640.03;;;8.62;81.64
65151;BME280;51918;51.856;0.150;2023-04-08T23:01:53;101638.69;;;8.58;80.75
65151;BME280;51918;51.856;0.150;2023-04-08T23:06:58;101643.28;;;8.64;80.89
65151;BME280;51918;51.856;0.150;2023-04-08T23:12:08;101638.06;;;8.66;80.31
65151;BME280;51918;51.856;0.150;2023-04-08T23:17:17;101642.84;;;8.59;79.68
65151;BME280;51918;51.856;0.150;2023-04-08T23:22:20;101644.97;;;8.54;79.48
65151;BME280;51918;51.856;0.150;2023-04-08T23:27:38;101643.84;;;8.13;82.22
65151;BME280;51918;51.856;0.150;2023-04-08T23:32:39;101638.50;;;7.94;82.30
65151;BME280;51918;51.856;0.150;2023-04-08T23:37:41;101629.16;;;8.04;82.21
65151;BME280;51918;51.856;0.150;2023-04-08T23:42:41;101633.13;;;7.97;81.92
65151;BME280;51918;51.856;0.150;2023-04-08T23:47:41;101630.91;;;8.03;82.30
65151;BME280;51918;51.856;0.150;2023-04-08T23:53:09;101635.44;;;8.00;82.26
65151;BME280;51918;51.856;0.150;2023-04-08T23:58:22;101640.56;;;7.89;83.88
